sensor_id;sensor_type;location;lat;lon;timestamp;temperature;humidity
5023;DHT22;2530;47.990;7.866;2023-04-15T00:00:09;5.40;99.90
5023;DHT22;2530;47.990;7.866;2023-04-15T00:02:36;5.40;99.90
5023;DHT22;2530;47.990;7.866;2023-04-15T00:05:02;5.40;99.90
5023;DHT22;2530;47.990;7.866;2023-04-15T00:07:27;5.20;99.90
5023;DHT22;2530;47.990;7.866;2023-04-15T00:09:54;5.40;99.90
5023;DHT22;2530;47.990;7.866;2023-04-15T00:12:22;5.20;99.90
5023;DHT22;2530;47.990;7.866;2023-04-15T00:14:48;5.10;99.90
5023;DHT22;2530;47.990;7.866;2023-04-15T00:17:14;5.20;99.90
5023;DHT22;2530;47.990;7.866;2023-04-15T00:19:39;5.20;99.90
5023;DHT22;2530;47.990;7.866;2023-04-15T00:22:05;5.10;99.90
5023;DHT22;2530;47.990;7.866;2023-04-15T00:24:31;5.30;99.90
5023;DHT22;2530;47.990;7.866;2023-04-15T00:26:57;5.20;99.90
5023;DHT22;2530;47.990;7.866;2023-04-15T00:29:23;5.40;99.90
5023;DHT22;2530;47.990;7.866;2023-04-15T00:31:48;5.20;99.90
5023;DHT22;2530;47.990;7.866;2023-04-15T00:34:14;5.40;99.90
5023;DHT22;2530;47.990;7.866;2023-04-15T00:36:39;5.40;99.90
5023;DHT22;2530;47.990;7.866;2023-04-15T00:39:05;5.50;99.90
5023;DHT22;2530;47.990;7.866;2023-04-15T00:41:31;5.50;99.90
5023;DHT22;2530;47.990;7.866;2023-04-15T00:43:58;5.60;99.90
5023;DHT22;2530;47.990;7.866;2023-04-15T00:46:26;5.50;99.90
5023;DHT22;2530;47.990;7.866;2023-04-15T00:48:53;5.50;99.90
5023;DHT22;2530;47.990;7.866;2023-04-15T00:51:19;5.60;99.90
5023;DHT22;2530;47.990;7.866;2023-04-15T00:53:44;5.60;99.90
5023;DHT22;2530;47.990;7.866;2023-04-15T00:56:10;5.60;99.90
5023;DHT22;2530;47.990;7.866;2023-04-15T00:58:36;5.80;99.90
5023;DHT22;2530;47.990;7.866;2023-04-15T01:01:03;5.80;99.90
5023;DHT22;2530;47.990;7.866;2023-04-15T01:03:29;5.80;99.90
5023;DHT22;2530;47.990;7.866;2023-04-15T01:05:55;5.60;99.90
5023;DHT22;2530;47.990;7.866;2023-04-15T01:08:26;5.60;99.90
5023;DHT22;2530;47.990;7.866;2023-04-15T01:10:54;5.60;99.90
5023;DHT22;2530;47.990;7.866;2023-04-15T01:13:22;5.60;99.90
5023;DHT22;2530;47.990;7.866;2023-04-15T01:15:48;5.50;99.90
5023;DHT22;2530;47.990;7.866;2023-04-15T01:18:14;5.50;99.90
5023;DHT22;2530;47.990;7.866;2023-04-15T01:20:40;5.50;99.90
5023;DHT22;2530;47.990;7.866;2023-04-15T01:23:06;5.50;99.90
5023;DHT22;2530;47.990;7.866;2023-04-15T01:25:32;5.50;99.90
5023;DHT22;2530;47.990;7.866;2023-04-15T01:27:58;5.40;99.90
5023;DHT22;2530;47.990;7.866;2023-04-15T01:30:24;5.50;99.90
5023;DHT22;2530;47.990;7.866;2023-04-15T01:32:51;5.40;99.90
5023;DHT22;2530;47.990;7.866;2023-04-15T01:35:17;5.40;99.90
5023;DHT22;2530;47.990;7.866;2023-04-15T01:37:43;5.40;99.90
5023;DHT22;2530;47.990;7.866;2023-04-15T01:40:09;5.50;99.90
5023;DHT22;2530;47.990;7.866;2023-04-15T01:42:37;5.50;99.90
5023;DHT22;2530;47.990;7.866;2023-04-15T01:45:03;5.60;99.90
5023;DHT22;2530;47.990;7.866;2023-04-15T01:47:29;5.60;99.90
5023;DHT22;2530;47.990;7.866;2023-04-15T01:49:54;5.50;99.90
5023;DHT22;2530;47.990;7.866;2023-04-15T01:52:20;5.50;99.90
5023;DHT22;2530;47.990;7.866;2023-04-15T01:54:45;5.50;99.90
5023;DHT22;2530;47.990;7.866;2023-04-15T01:57:11;5.60;99.90
5023;DHT22;2530;47.990;7.866;2023-04-15T01:59:37;5.60;99.90
5023;DHT22;2530;47.990;7.866;2023-04-15T02:02:02;5.70;99.90
5023;DHT22;2530;47.990;7.866;2023-04-15T02:04:28;5.80;99.90
5023;DHT22;2530;47.990;7.866;2023-04-15T02:06:54;5.80;99.90
5023;DHT22;2530;47.990;7.866;2023-04-15T02:09:19;5.80;99.90
5023;DHT22;2530;47.990;7.866;2023-04-15T02:11:45;5.80;99.90
5023;DHT22;2530;47.990;7.866;2023-04-15T02:14:11;5.80;99.90
5023;DHT22;2530;47.990;7.866;2023-04-15T02:16:37;5.80;99.90
5023;DHT22;2530;47.990;7.866;2023-04-15T02:19:02;5.80;99.90
5023;DHT22;2530;47.990;7.866;2023-04-15T02:21:28;5.80;99.90
5023;DHT22;2530;47.990;7.866;2023-04-15T02:23:54;5.80;99.90
5023;DHT22;2530;47.990;7.866;2023-04-15T02:26:20;5.80;99.90
5023;DHT22;2530;47.990;7.866;2023-04-15T02:28:47;5.80;99.90
5023;DHT22;2530;47.990;7.866;2023-04-15T02:31:13;5.90;99.90
5023;DHT22;2530;47.990;7.866;2023-04-15T02:33:38;5.90;99.90
5023;DHT22;2530;47.990;7.866;2023-04-15T02:36:04;5.90;99.90
5023;DHT22;2530;47.990;7.866;2023-04-15T02:38:30;5.90;99.90
5023;DHT22;2530;47.990;7.866;2023-04-15T02:40:56;5.90;99.90
5023;DHT22;2530;47.990;7.866;2023-04-15T02:43:22;5.80;99.90
5023;DHT22;2530;47.990;7.866;2023-04-15T02:45:47;5.80;99.90
5023;DHT22;2530;47.990;7.866;2023-04-15T02:48:13;5.90;99.90
5023;DHT22;2530;47.990;7.866;2023-04-15T02:50:38;6.10;99.90
5023;DHT22;2530;47.990;7.866;2023-04-15T02:53:05;6.20;99.90
5023;DHT22;2530;47.990;7.866;2023-04-15T02:55:31;6.00;99.90
5023;DHT22;2530;47.990;7.866;2023-04-15T02:57:56;6.00;99.90
5023;DHT22;2530;47.990;7.866;2023-04-15T03:00:26;6.20;99.90
5023;DHT22;2530;47.990;7.866;2023-04-15T03:02:56;6.30;99.90
5023;DHT22;2530;47.990;7.866;2023-04-15T03:05:22;6.20;99.90
5023;DHT22;2530;47.990;7.866;2023-04-15T03:07:51;6.10;99.90
5023;DHT22;2530;47.990;7.866;2023-04-15T03:10:16;6.10;99.90
5023;DHT22;2530;47.990;7.866;2023-04-15T03:12:42;6.10;99.90
5023;DHT22;2530;47.990;7.866;2023-04-15T03:15:08;6.20;99.90
5023;DHT22;2530;47.990;7.866;2023-04-15T03:17:34;6.20;99.90
5023;DHT22;2530;47.990;7.866;2023-04-15T03:20:01;6.20;99.90
5023;DHT22;2530;47.990;7.866;2023-04-15T03:22:28;6.20;99.90
5023;DHT22;2530;47.990;7.866;2023-04-15T03:24:53;6.30;99.90
5023;DHT22;2530;47.990;7.866;2023-04-15T03:27:19;6.30;99.90
5023;DHT22;2530;47.990;7.866;2023-04-15T03:29:44;6.30;99.90
5023;DHT22;2530;47.990;7.866;2023-04-15T03:32:10;6.20;99.90
5023;DHT22;2530;47.990;7.866;2023-04-15T03:34:37;6.20;99.90
5023;DHT22;2530;47.990;7.866;2023-04-15T03:37:02;6.30;99.90
5023;DHT22;2530;47.990;7.866;2023-04-15T03:39:28;6.30;99.90
5023;DHT22;2530;47.990;7.866;2023-04-15T03:41:53;6.30;99.90
5023;DHT22;2530;47.990;7.866;2023-04-15T03:44:19;6.30;99.90
5023;DHT22;2530;47.990;7.866;2023-04-15T03:46:44;6.30;99.90
5023;DHT22;2530;47.990;7.866;2023-04-15T03:49:10;6.30;99.90
5023;DHT22;2530;47.990;7.866;2023-04-15T03:51:35;6.30;99.90
5023;DHT22;2530;47.990;7.866;2023-04-15T03:54:01;6.40;99.90
5023;DHT22;2530;47.990;7.866;2023-04-15T03:56:26;6.20;99.90
5023;DHT22;2530;47.990;7.866;2023-04-15T03:58:52;6.20;99.90
5023;DHT22;2530;47.990;7.866;2023-04-15T04:01:18;6.30;99.90
5023;DHT22;2530;47.990;7.866;2023-04-15T04:03:43;6.40;99.90
5023;DHT22;2530;47.990;7.866;2023-04-15T04:06:09;6.30;99.90
5023;DHT22;2530;47.990;7.866;2023-04-15T04:08:36;6.40;99.90
5023;DHT22;2530;47.990;7.866;2023-04-15T04:11:02;6.40;99.90
5023;DHT22;2530;47.990;7.866;2023-04-15T04:13:28;6.50;99.90
5023;DHT22;2530;47.990;7.866;2023-04-15T04:15:53;6.30;99.90
5023;DHT22;2530;47.990;7.866;2023-04-15T04:18:19;6.40;99.90
5023;DHT22;2530;47.990;7.866;2023-04-15T04:20:45;6.40;99.90
5023;DHT22;2530;47.990;7.866;2023-04-15T04:23:10;6.50;99.90
5023;DHT22;2530;47.990;7.866;2023-04-15T04:25:36;6.40;99.90
5023;DHT22;2530;47.990;7.866;2023-04-15T04:28:02;6.50;99.90
5023;DHT22;2530;47.990;7.866;2023-04-15T04:30:28;6.50;99.90
5023;DHT22;2530;47.990;7.866;2023-04-15T04:32:53;6.60;99.90
5023;DHT22;2530;47.990;7.866;2023-04-15T04:35:19;6.60;99.90
5023;DHT22;2530;47.990;7.866;2023-04-15T04:37:45;6.50;99.90
5023;DHT22;2530;47.990;7.866;2023-04-15T04:40:10;6.50;99.90
5023;DHT22;2530;47.990;7.866;2023-04-15T04:42:36;6.60;99.90
5023;DHT22;2530;47.990;7.866;2023-04-15T04:45:02;6.70;99.90
5023;DHT22;2530;47.990;7.866;2023-04-15T04:47:27;6.70;99.90
5023;DHT22;2530;47.990;7.866;2023-04-15T04:49:54;6.90;99.90
5023;DHT22;2530;47.990;7.866;2023-04-15T04:52:19;6.80;99.90
5023;DHT22;2530;47.990;7.866;2023-04-15T04:54:45;6.80;99.90
5023;DHT22;2530;47.990;7.866;2023-04-15T04:57:11;6.70;99.90
5023;DHT22;2530;47.990;7.866;2023-04-15T04:59:38;6.70;99.90
5023;DHT22;2530;47.990;7.866;2023-04-15T05:02:03;6.70;99.90
5023;DHT22;2530;47.990;7.866;2023-04-15T05:04:29;6.80;99.90
5023;DHT22;2530;47.990;7.866;2023-04-15T05:06:56;6.80;99.90
5023;DHT22;2530;47.990;7.866;2023-04-15T05:09:22;6.70;99.90
5023;DHT22;2530;47.990;7.866;2023-04-15T05:11:47;6.70;99.90
5023;DHT22;2530;47.990;7.866;2023-04-15T05:14:13;6.70;99.90
5023;DHT22;2530;47.990;7.866;2023-04-15T05:16:38;6.80;99.90
5023;DHT22;2530;47.990;7.866;2023-04-15T05:19:04;6.80;99.90
5023;DHT22;2530;47.990;7.866;2023-04-15T05:21:29;7.00;99.90
5023;DHT22;2530;47.990;7.866;2023-04-15T05:23:56;6.90;99.90
5023;DHT22;2530;47.990;7.866;2023-04-15T05:26:21;7.00;99.90
5023;DHT22;2530;47.990;7.866;2023-04-15T05:28:48;7.00;99.90
5023;DHT22;2530;47.990;7.866;2023-04-15T05:31:14;7.00;99.90
5023;DHT22;2530;47.990;7.866;2023-04-15T05:33:40;7.10;99.90
5023;DHT22;2530;47.990;7.866;2023-04-15T05:36:06;7.10;99.90
5023;DHT22;2530;47.990;7.866;2023-04-15T05:38:31;7.10;99.90
5023;DHT22;2530;47.990;7.866;2023-04-15T05:40:57;7.10;99.90
5023;DHT22;2530;47.990;7.866;2023-04-15T05:43:22;7.20;99.90
5023;DHT22;2530;47.990;7.866;2023-04-15T05:45:48;7.10;99.90
5023;DHT22;2530;47.990;7.866;2023-04-15T05:48:13;7.10;99.90
5023;DHT22;2530;47.990;7.866;2023-04-15T05:50:42;7.10;99.90
5023;DHT22;2530;47.990;7.866;2023-04-15T05:53:08;7.20;99.90
5023;DHT22;2530;47.990;7.866;2023-04-15T05:55:33;7.30;99.90
5023;DHT22;2530;47.990;7.866;2023-04-15T05:57:59;7.30;99.90
5023;DHT22;2530;47.990;7.866;2023-04-15T06:00:24;7.50;99.90
5023;DHT22;2530;47.990;7.866;2023-04-15T06:02:50;7.60;99.90
5023;DHT22;2530;47.990;7.866;2023-04-15T06:05:16;7.70;99.90
5023;DHT22;2530;47.990;7.866;2023-04-15T06:07:42;7.90;99.90
5023;DHT22;2530;47.990;7.866;2023-04-15T06:10:08;8.00;99.90
5023;DHT22;2530;47.990;7.866;2023-04-15T06:12:34;8.10;99.30
5023;DHT22;2530;47.990;7.866;2023-04-15T06:15:00;8.00;97.90
5023;DHT22;2530;47.990;7.866;2023-04-15T06:17:25;8.20;99.90
5023;DHT22;2530;47.990;7.866;2023-04-15T06:19:51;8.30;96.30
5023;DHT22;2530;47.990;7.866;2023-04-15T06:22:21;8.50;94.80
5023;DHT22;2530;47.990;7.866;2023-04-15T06:24:47;8.50;90.40
5023;DHT22;2530;47.990;7.866;2023-04-15T06:27:15;8.40;92.00
5023;DHT22;2530;47.990;7.866;2023-04-15T06:29:40;8.40;95.80
5023;DHT22;2530;47.990;7.866;2023-04-15T06:32:06;8.60;89.30
5023;DHT22;2530;47.990;7.866;2023-04-15T06:34:31;8.60;84.00
5023;DHT22;2530;47.990;7.866;2023-04-15T06:36:57;8.60;93.40
5023;DHT22;2530;47.990;7.866;2023-04-15T06:39:23;8.70;93.10
5023;DHT22;2530;47.990;7.866;2023-04-15T06:41:48;8.60;94.10
5023;DHT22;2530;47.990;7.866;2023-04-15T06:44:13;8.80;88.10
5023;DHT22;2530;47.990;7.866;2023-04-15T06:46:40;8.90;84.50
5023;DHT22;2530;47.990;7.866;2023-04-15T06:49:05;8.80;88.60
5023;DHT22;2530;47.990;7.866;2023-04-15T06:51:31;9.00;83.20
5023;DHT22;2530;47.990;7.866;2023-04-15T06:53:57;9.00;76.30
5023;DHT22;2530;47.990;7.866;2023-04-15T06:56:22;9.20;77.10
5023;DHT22;2530;47.990;7.866;2023-04-15T06:58:48;9.30;72.70
5023;DHT22;2530;47.990;7.866;2023-04-15T07:01:13;9.40;82.40
5023;DHT22;2530;47.990;7.866;2023-04-15T07:03:39;9.30;76.10
5023;DHT22;2530;47.990;7.866;2023-04-15T07:06:06;9.30;76.00
5023;DHT22;2530;47.990;7.866;2023-04-15T07:08:32;9.30;79.00
5023;DHT22;2530;47.990;7.866;2023-04-15T07:10:59;9.40;72.30
5023;DHT22;2530;47.990;7.866;2023-04-15T07:13:24;9.50;70.70
5023;DHT22;2530;47.990;7.866;2023-04-15T07:15:50;9.50;78.70
5023;DHT22;2530;47.990;7.866;2023-04-15T07:18:16;9.60;87.70
5023;DHT22;2530;47.990;7.866;2023-04-15T07:20:41;9.80;90.40
5023;DHT22;2530;47.990;7.866;2023-04-15T07:23:07;9.90;69.50
5023;DHT22;2530;47.990;7.866;2023-04-15T07:25:33;9.90;62.30
5023;DHT22;2530;47.990;7.866;2023-04-15T07:27:58;9.80;90.60
5023;DHT22;2530;47.990;7.866;2023-04-15T07:30:24;9.90;71.00
5023;DHT22;2530;47.990;7.866;2023-04-15T07:32:50;9.90;63.60
5023;DHT22;2530;47.990;7.866;2023-04-15T07:35:15;10.00;65.20
5023;DHT22;2530;47.990;7.866;2023-04-15T07:37:41;10.10;67.70
5023;DHT22;2530;47.990;7.866;2023-04-15T07:40:08;10.20;68.70
5023;DHT22;2530;47.990;7.866;2023-04-15T07:42:34;10.30;67.90
5023;DHT22;2530;47.990;7.866;2023-04-15T07:44:59;10.50;67.80
5023;DHT22;2530;47.990;7.866;2023-04-15T07:47:25;10.50;63.30
5023;DHT22;2530;47.990;7.866;2023-04-15T07:49:51;10.60;70.70
5023;DHT22;2530;47.990;7.866;2023-04-15T07:52:17;10.80;62.90
5023;DHT22;2530;47.990;7.866;2023-04-15T07:54:43;10.80;66.10
5023;DHT22;2530;47.990;7.866;2023-04-15T07:57:09;10.70;71.10
5023;DHT22;2530;47.990;7.866;2023-04-15T07:59:34;10.70;71.80
5023;DHT22;2530;47.990;7.866;2023-04-15T08:02:00;10.90;68.30
5023;DHT22;2530;47.990;7.866;2023-04-15T08:04:26;11.00;71.10
5023;DHT22;2530;47.990;7.866;2023-04-15T08:06:52;10.90;68.70
5023;DHT22;2530;47.990;7.866;2023-04-15T08:09:19;10.90;68.50
5023;DHT22;2530;47.990;7.866;2023-04-15T08:11:47;10.90;71.30
5023;DHT22;2530;47.990;7.866;2023-04-15T08:14:13;10.80;73.50
5023;DHT22;2530;47.990;7.866;2023-04-15T08:16:39;10.90;76.10
5023;DHT22;2530;47.990;7.866;2023-04-15T08:19:04;10.80;84.60
5023;DHT22;2530;47.990;7.866;2023-04-15T08:21:30;10.40;92.20
5023;DHT22;2530;47.990;7.866;2023-04-15T08:23:56;10.70;87.20
5023;DHT22;2530;47.990;7.866;2023-04-15T08:26:21;10.80;85.30
5023;DHT22;2530;47.990;7.866;2023-04-15T08:28:47;10.70;91.60
5023;DHT22;2530;47.990;7.866;2023-04-15T08:31:14;10.80;79.00
5023;DHT22;2530;47.990;7.866;2023-04-15T08:33:40;10.90;83.10
5023;DHT22;2530;47.990;7.866;2023-04-15T08:36:06;10.90;78.20
5023;DHT22;2530;47.990;7.866;2023-04-15T08:38:32;10.90;81.50
5023;DHT22;2530;47.990;7.866;2023-04-15T08:41:03;10.90;77.60
5023;DHT22;2530;47.990;7.866;2023-04-15T08:43:33;10.70;83.60
5023;DHT22;2530;47.990;7.866;2023-04-15T08:45:59;10.60;90.60
5023;DHT22;2530;47.990;7.866;2023-04-15T08:48:31;10.90;91.60
5023;DHT22;2530;47.990;7.866;2023-04-15T08:50:57;10.90;89.40
5023;DHT22;2530;47.990;7.866;2023-04-15T08:53:23;10.80;76.70
5023;DHT22;2530;47.990;7.866;2023-04-15T08:55:51;11.00;76.30
5023;DHT22;2530;47.990;7.866;2023-04-15T08:58:18;11.00;82.20
5023;DHT22;2530;47.990;7.866;2023-04-15T09:00:44;11.30;68.60
5023;DHT22;2530;47.990;7.866;2023-04-15T09:03:10;11.30;71.00
5023;DHT22;2530;47.990;7.866;2023-04-15T09:05:36;11.10;68.70
5023;DHT22;2530;47.990;7.866;2023-04-15T09:08:03;11.20;72.10
5023;DHT22;2530;47.990;7.866;2023-04-15T09:10:30;11.40;67.80
5023;DHT22;2530;47.990;7.866;2023-04-15T09:12:56;11.30;67.80
5023;DHT22;2530;47.990;7.866;2023-04-15T09:15:24;11.30;67.40
5023;DHT22;2530;47.990;7.866;2023-04-15T09:17:49;11.20;69.20
5023;DHT22;2530;47.990;7.866;2023-04-15T09:20:16;11.40;63.00
5023;DHT22;2530;47.990;7.866;2023-04-15T09:22:44;11.40;62.10
5023;DHT22;2530;47.990;7.866;2023-04-15T09:27:56;11.50;60.80
5023;DHT22;2530;47.990;7.866;2023-04-15T09:30:22;11.90;64.40
5023;DHT22;2530;47.990;7.866;2023-04-15T09:32:58;11.70;57.20
5023;DHT22;2530;47.990;7.866;2023-04-15T09:35:25;11.90;56.70
5023;DHT22;2530;47.990;7.866;2023-04-15T09:40:40;12.30;46.70
5023;DHT22;2530;47.990;7.866;2023-04-15T09:43:07;12.60;52.80
5023;DHT22;2530;47.990;7.866;2023-04-15T09:45:34;12.20;45.70
5023;DHT22;2530;47.990;7.866;2023-04-15T09:48:15;12.30;45.50
5023;DHT22;2530;47.990;7.866;2023-04-15T09:50:41;12.40;41.40
5023;DHT22;2530;47.990;7.866;2023-04-15T09:53:18;12.40;43.40
5023;DHT22;2530;47.990;7.866;2023-04-15T09:55:45;12.70;43.00
5023;DHT22;2530;47.990;7.866;2023-04-15T09:58:17;12.40;42.50
5023;DHT22;2530;47.990;7.866;2023-04-15T10:00:44;12.20;48.10
5023;DHT22;2530;47.990;7.866;2023-04-15T10:03:11;12.30;43.30
5023;DHT22;2530;47.990;7.866;2023-04-15T10:05:38;12.50;41.50
5023;DHT22;2530;47.990;7.866;2023-04-15T10:08:04;12.50;41.50
5023;DHT22;2530;47.990;7.866;2023-04-15T10:10:30;12.50;41.00
5023;DHT22;2530;47.990;7.866;2023-04-15T10:12:57;12.40;44.90
5023;DHT22;2530;47.990;7.866;2023-04-15T10:15:23;12.90;39.00
5023;DHT22;2530;47.990;7.866;2023-04-15T10:17:50;13.00;38.20
5023;DHT22;2530;47.990;7.866;2023-04-15T10:20:18;12.40;41.50
5023;DHT22;2530;47.990;7.866;2023-04-15T10:22:45;12.90;40.60
5023;DHT22;2530;47.990;7.866;2023-04-15T10:25:14;13.00;38.60
5023;DHT22;2530;47.990;7.866;2023-04-15T10:27:40;12.90;37.30
5023;DHT22;2530;47.990;7.866;2023-04-15T10:30:08;12.90;37.20
5023;DHT22;2530;47.990;7.866;2023-04-15T10:32:34;13.10;36.70
5023;DHT22;2530;47.990;7.866;2023-04-15T10:35:00;12.60;36.10
5023;DHT22;2530;47.990;7.866;2023-04-15T10:37:36;13.00;35.70
5023;DHT22;2530;47.990;7.866;2023-04-15T10:40:23;12.70;40.70
5023;DHT22;2530;47.990;7.866;2023-04-15T10:42:50;12.60;39.50
5023;DHT22;2530;47.990;7.866;2023-04-15T10:45:17;13.00;37.90
5023;DHT22;2530;47.990;7.866;2023-04-15T10:47:43;12.80;39.30
5023;DHT22;2530;47.990;7.866;2023-04-15T10:50:08;13.10;36.40
5023;DHT22;2530;47.990;7.866;2023-04-15T10:52:34;13.10;33.30
5023;DHT22;2530;47.990;7.866;2023-04-15T10:55:13;13.20;31.10
5023;DHT22;2530;47.990;7.866;2023-04-15T10:57:42;13.30;32.10
5023;DHT22;2530;47.990;7.866;2023-04-15T11:05:19;13.20;31.20
5023;DHT22;2530;47.990;7.866;2023-04-15T11:07:51;13.70;32.10
5023;DHT22;2530;47.990;7.866;2023-04-15T11:12:43;14.30;28.00
5023;DHT22;2530;47.990;7.866;2023-04-15T11:17:59;14.00;25.40
5023;DHT22;2530;47.990;7.866;2023-04-15T11:20:32;13.90;26.80
5023;DHT22;2530;47.990;7.866;2023-04-15T11:22:58;14.00;25.80
5023;DHT22;2530;47.990;7.866;2023-04-15T11:25:29;13.60;26.10
5023;DHT22;2530;47.990;7.866;2023-04-15T11:27:55;13.50;26.30
5023;DHT22;2530;47.990;7.866;2023-04-15T11:30:25;13.30;27.70
5023;DHT22;2530;47.990;7.866;2023-04-15T11:32:54;13.40;28.80
5023;DHT22;2530;47.990;7.866;2023-04-15T11:35:20;13.30;28.40
5023;DHT22;2530;47.990;7.866;2023-04-15T11:37:47;13.20;29.30
5023;DHT22;2530;47.990;7.866;2023-04-15T11:40:14;13.30;29.50
5023;DHT22;2530;47.990;7.866;2023-04-15T11:42:42;13.10;29.70
5023;DHT22;2530;47.990;7.866;2023-04-15T11:45:08;13.00;29.50
5023;DHT22;2530;47.990;7.866;2023-04-15T11:47:35;13.00;30.20
5023;DHT22;2530;47.990;7.866;2023-04-15T11:50:17;13.10;29.70
5023;DHT22;2530;47.990;7.866;2023-04-15T11:52:56;13.10;30.10
5023;DHT22;2530;47.990;7.866;2023-04-15T11:55:22;12.80;29.90
5023;DHT22;2530;47.990;7.866;2023-04-15T12:00:36;13.00;28.80
5023;DHT22;2530;47.990;7.866;2023-04-15T12:06:07;13.50;24.90
5023;DHT22;2530;47.990;7.866;2023-04-15T12:14:03;13.40;24.40
5023;DHT22;2530;47.990;7.866;2023-04-15T12:16:29;13.50;24.40
5023;DHT22;2530;47.990;7.866;2023-04-15T12:18:57;13.50;23.70
5023;DHT22;2530;47.990;7.866;2023-04-15T12:21:31;13.70;23.40
5023;DHT22;2530;47.990;7.866;2023-04-15T12:24:01;13.50;22.90
5023;DHT22;2530;47.990;7.866;2023-04-15T12:26:28;13.60;24.30
5023;DHT22;2530;47.990;7.866;2023-04-15T12:28:55;14.00;22.40
5023;DHT22;2530;47.990;7.866;2023-04-15T12:31:21;14.10;20.70
5023;DHT22;2530;47.990;7.866;2023-04-15T12:33:48;14.60;20.50
5023;DHT22;2530;47.990;7.866;2023-04-15T12:36:14;14.70;20.70
5023;DHT22;2530;47.990;7.866;2023-04-15T12:38:40;14.70;16.50
5023;DHT22;2530;47.990;7.866;2023-04-15T12:41:05;15.00;17.50
5023;DHT22;2530;47.990;7.866;2023-04-15T12:43:31;15.10;14.50
5023;DHT22;2530;47.990;7.866;2023-04-15T12:45:56;15.50;14.10
5023;DHT22;2530;47.990;7.866;2023-04-15T12:48:22;16.20;12.30
5023;DHT22;2530;47.990;7.866;2023-04-15T12:50:47;16.60;9.40
5023;DHT22;2530;47.990;7.866;2023-04-15T12:53:13;16.40;9.60
5023;DHT22;2530;47.990;7.866;2023-04-15T12:55:39;15.80;7.40
5023;DHT22;2530;47.990;7.866;2023-04-15T12:58:04;15.60;8.90
5023;DHT22;2530;47.990;7.866;2023-04-15T13:00:33;15.50;8.30
5023;DHT22;2530;47.990;7.866;2023-04-15T13:02:58;15.40;7.60
5023;DHT22;2530;47.990;7.866;2023-04-15T13:05:24;14.90;8.20
5023;DHT22;2530;47.990;7.866;2023-04-15T13:07:49;14.70;8.40
5023;DHT22;2530;47.990;7.866;2023-04-15T13:10:15;14.40;7.40
5023;DHT22;2530;47.990;7.866;2023-04-15T13:12:41;14.50;7.80
5023;DHT22;2530;47.990;7.866;2023-04-15T13:15:07;14.40;11.10
5023;DHT22;2530;47.990;7.866;2023-04-15T13:17:35;14.30;11.20
5023;DHT22;2530;47.990;7.866;2023-04-15T13:20:01;14.40;11.70
5023;DHT22;2530;47.990;7.866;2023-04-15T13:22:26;14.40;11.80
5023;DHT22;2530;47.990;7.866;2023-04-15T13:24:52;14.50;11.90
5023;DHT22;2530;47.990;7.866;2023-04-15T13:27:17;14.60;11.00
5023;DHT22;2530;47.990;7.866;2023-04-15T13:29:42;14.50;10.50
5023;DHT22;2530;47.990;7.866;2023-04-15T13:32:08;14.40;8.00
5023;DHT22;2530;47.990;7.866;2023-04-15T13:34:34;14.80;6.00
5023;DHT22;2530;47.990;7.866;2023-04-15T13:37:08;14.80;5.80
5023;DHT22;2530;47.990;7.866;2023-04-15T13:39:33;14.70;6.40
5023;DHT22;2530;47.990;7.866;2023-04-15T13:41:59;14.80;5.40
5023;DHT22;2530;47.990;7.866;2023-04-15T13:44:25;14.80;5.70
5023;DHT22;2530;47.990;7.866;2023-04-15T13:46:52;14.70;3.80
5023;DHT22;2530;47.990;7.866;2023-04-15T13:49:17;14.70;4.20
5023;DHT22;2530;47.990;7.866;2023-04-15T13:51:42;14.70;3.60
5023;DHT22;2530;47.990;7.866;2023-04-15T13:54:08;14.80;4.60
5023;DHT22;2530;47.990;7.866;2023-04-15T13:56:34;14.80;2.50
5023;DHT22;2530;47.990;7.866;2023-04-15T13:58:59;14.80;1.00
5023;DHT22;2530;47.990;7.866;2023-04-15T14:01:27;14.90;4.70
5023;DHT22;2530;47.990;7.866;2023-04-15T14:03:52;14.50;18.20
5023;DHT22;2530;47.990;7.866;2023-04-15T14:06:18;14.20;27.00
5023;DHT22;2530;47.990;7.866;2023-04-15T14:08:43;14.20;28.60
5023;DHT22;2530;47.990;7.866;2023-04-15T14:11:09;14.00;30.30
5023;DHT22;2530;47.990;7.866;2023-04-15T14:13:35;13.90;32.70
5023;DHT22;2530;47.990;7.866;2023-04-15T14:16:01;14.00;34.80
5023;DHT22;2530;47.990;7.866;2023-04-15T14:18:26;13.90;36.60
5023;DHT22;2530;47.990;7.866;2023-04-15T14:20:52;13.70;44.90
5023;DHT22;2530;47.990;7.866;2023-04-15T14:23:18;13.60;44.50
5023;DHT22;2530;47.990;7.866;2023-04-15T14:25:43;13.80;42.00
5023;DHT22;2530;47.990;7.866;2023-04-15T14:28:09;13.70;43.90
5023;DHT22;2530;47.990;7.866;2023-04-15T14:30:34;13.60;46.40
5023;DHT22;2530;47.990;7.866;2023-04-15T14:33:00;13.50;44.50
5023;DHT22;2530;47.990;7.866;2023-04-15T14:35:25;13.60;44.10
5023;DHT22;2530;47.990;7.866;2023-04-15T14:37:54;13.60;48.80
5023;DHT22;2530;47.990;7.866;2023-04-15T14:40:20;13.90;48.40
5023;DHT22;2530;47.990;7.866;2023-04-15T14:42:46;14.30;43.20
5023;DHT22;2530;47.990;7.866;2023-04-15T14:45:12;15.10;34.60
5023;DHT22;2530;47.990;7.866;2023-04-15T14:47:37;15.00;36.20
5023;DHT22;2530;47.990;7.866;2023-04-15T14:50:03;15.30;27.80
5023;DHT22;2530;47.990;7.866;2023-04-15T14:52:32;16.10;21.70
5023;DHT22;2530;47.990;7.866;2023-04-15T14:55:04;16.00;19.10
5023;DHT22;2530;47.990;7.866;2023-04-15T14:57:30;14.80;22.70
5023;DHT22;2530;47.990;7.866;2023-04-15T14:59:55;14.80;24.20
5023;DHT22;2530;47.990;7.866;2023-04-15T15:02:21;15.40;21.50
5023;DHT22;2530;47.990;7.866;2023-04-15T15:04:47;15.90;17.20
5023;DHT22;2530;47.990;7.866;2023-04-15T15:07:12;16.20;15.10
5023;DHT22;2530;47.990;7.866;2023-04-15T15:09:38;16.70;13.20
5023;DHT22;2530;47.990;7.866;2023-04-15T15:12:03;17.10;12.30
5023;DHT22;2530;47.990;7.866;2023-04-15T15:14:29;17.30;10.70
5023;DHT22;2530;47.990;7.866;2023-04-15T15:16:54;17.00;10.90
5023;DHT22;2530;47.990;7.866;2023-04-15T15:19:20;16.60;12.40
5023;DHT22;2530;47.990;7.866;2023-04-15T15:21:46;16.80;10.30
5023;DHT22;2530;47.990;7.866;2023-04-15T15:24:11;16.80;11.30
5023;DHT22;2530;47.990;7.866;2023-04-15T15:26:37;16.90;11.80
5023;DHT22;2530;47.990;7.866;2023-04-15T15:29:02;16.20;12.40
5023;DHT22;2530;47.990;7.866;2023-04-15T15:31:28;15.70;12.60
5023;DHT22;2530;47.990;7.866;2023-04-15T15:33:53;15.60;14.40
5023;DHT22;2530;47.990;7.866;2023-04-15T15:36:19;15.10;16.40
5023;DHT22;2530;47.990;7.866;2023-04-15T15:38:44;14.90;18.20
5023;DHT22;2530;47.990;7.866;2023-04-15T15:41:10;14.80;20.60
5023;DHT22;2530;47.990;7.866;2023-04-15T15:43:36;15.30;19.30
5023;DHT22;2530;47.990;7.866;2023-04-15T15:46:02;15.90;18.10
5023;DHT22;2530;47.990;7.866;2023-04-15T15:48:28;15.90;16.70
5023;DHT22;2530;47.990;7.866;2023-04-15T15:50:53;15.60;18.40
5023;DHT22;2530;47.990;7.866;2023-04-15T15:53:19;15.40;15.50
5023;DHT22;2530;47.990;7.866;2023-04-15T15:55:48;15.30;16.80
5023;DHT22;2530;47.990;7.866;2023-04-15T15:58:13;15.00;17.20
5023;DHT22;2530;47.990;7.866;2023-04-15T16:00:40;15.10;16.50
5023;DHT22;2530;47.990;7.866;2023-04-15T16:03:05;15.20;16.70
5023;DHT22;2530;47.990;7.866;2023-04-15T16:05:31;15.20;17.70
5023;DHT22;2530;47.990;7.866;2023-04-15T16:07:56;15.70;16.20
5023;DHT22;2530;47.990;7.866;2023-04-15T16:10:22;15.90;15.70
5023;DHT22;2530;47.990;7.866;2023-04-15T16:12:47;15.50;17.40
5023;DHT22;2530;47.990;7.866;2023-04-15T16:15:13;15.50;17.60
5023;DHT22;2530;47.990;7.866;2023-04-15T16:17:39;15.20;17.90
5023;DHT22;2530;47.990;7.866;2023-04-15T16:20:05;15.00;19.60
5023;DHT22;2530;47.990;7.866;2023-04-15T16:22:32;14.80;20.80
5023;DHT22;2530;47.990;7.866;2023-04-15T16:24:59;14.50;22.40
5023;DHT22;2530;47.990;7.866;2023-04-15T16:27:25;14.40;22.40
5023;DHT22;2530;47.990;7.866;2023-04-15T16:29:51;14.60;21.80